Terminal Aerodrome Forecast
Issued by NWS Sioux Falls, SD

Home | Current Version | Previous Version | Graphics & Text | Print | Product List | Glossary On
Versions: 1 2 3 4 5 6 7 8 9 10 11 12 13 14 15 16 17 18
258
FTUS43 KFSD 161134
TAFFSD
TAF
KFSD 161134Z 1612/1712 11006KT 6SM -SHRA SCT015 OVC080
     FM161500 13007KT 6SM SHRA VCTS OVC025CB
     FM161900 20008KT P6SM VCSH OVC025
     FM162100 30008KT P6SM VCSH OVC025
     FM170500 32011KT P6SM BKN015=

USA.gov is the U.S. government's official web portal to all federal, state and local government web resources and services.